Hurricane Symbol View the latest observations near East Pacific Tropical Storm Bud.

Station SVNM4 - South Haven Light, South Haven, MI Image indicating link to RSS feed of recent meteorological observations for station SVNM4


Conditions at SVNM4 as of
(7:20 pm EDT)
2320 GMT on 07/24/2024:
     

Click on the graph icon in the table below to see a time series plot of the last five days of that observation.

5-day plot - Wind Direction Wind Direction (WDIR):NNW ( 330 deg true )
5-day plot - Wind Speed Wind Speed (WSPD): 14 kts
5-day plot - Wind Gust Wind Gust (GST): 16 kts
5-day plot - Air Temperature Air Temperature (ATMP): 69.8 °F
5-day plot -  Wind Speed, Wind Gust and Atmospheric Pressure Combined plot of Wind Speed, Gust, and Air Pressure
Previous observations
TIME
(EDT)
5-day plot - Wind Direction
WDIR
 
5-day plot - Wind Speed
WSPD
kts
5-day plot - Wind Gust
GST
kts
5-day plot - Wave Height
WVHT
ft
5-day plot - Dominant Wave Period
DPD
sec
5-day plot - Average Wave Period
APD
sec
5-day plot - Mean Wave Direction
MWD
 
5-day plot - Atmospheric Pressure
PRES
in
5-day plot - Pressure Tendency
PTDY
in
5-day plot - Air Temperature
ATMP
°F
5-day plot - Water Temperature
WTMP
°F
5-day plot - Dew Point
DEWP
°F
5-day plot - Salinity
SAL
psu
5-day plot - Visibility
VIS
nmi
5-day plot - Tide (above MLLW)
TIDE
ft
2024-07-24 07:10 pm N 14 16------ 69.8-----
2024-07-24 07:00 pmNNW 14 15------ 69.8-----
2024-07-24 06:50 pmNNW 14 16------ 69.8-----
2024-07-24 06:40 pmNNW 14 16------ 69.8-----
2024-07-24 06:30 pmNNW 15 16------ 70.0-----
2024-07-24 06:20 pm NW 14 17------ 70.0-----
2024-07-24 06:10 pm NW 15 17------ 69.8-----
2024-07-24 06:00 pm NW 14 15------ 70.0-----
2024-07-24 05:50 pm NW 15 16------ 69.6-----
2024-07-24 05:40 pmNNW 15 17------ 69.8-----
2024-07-24 05:30 pmNNW 15 16------ 69.6-----
2024-07-24 05:20 pmNNW 14 16------ 70.0-----
2024-07-24 05:10 pm NW 13 15------ 70.3-----
2024-07-24 05:00 pm NW 13 16------ 70.2-----
2024-07-24 04:50 pm NW 13 15------ 70.2-----
2024-07-24 04:40 pm NW 14 17------ 70.3-----
2024-07-24 04:30 pm NW 15 17------ 70.0-----
2024-07-24 04:20 pm NW 14 16------ 70.0-----
2024-07-24 03:50 pmWNW 13 15------ 69.6-----
2024-07-24 03:40 pmWNW 13 14------ 69.4-----
2024-07-24 03:30 pmWNW 12 13------ 69.4-----
2024-07-24 03:20 pmWNW 13 14------ 69.4-----
2024-07-24 03:10 pmWNW 12 14------ 69.6-----
2024-07-24 03:00 pmWNW 13 14------ 69.4-----
2024-07-24 02:50 pmWNW 13 14------ 69.4-----
2024-07-24 02:40 pmWNW 12 14------ 69.3-----
2024-07-24 02:30 pmWNW 13 14------ 69.1-----
2024-07-24 02:20 pmWNW 14 15------ 69.3-----
2024-07-24 02:10 pmWNW 13 14------ 69.1-----
2024-07-24 02:00 pmWNW 12 13------ 69.4-----
2024-07-24 01:50 pmWNW 11 12------ 69.8-----
2024-07-24 01:40 pmWNW 10 11------ 69.6-----
2024-07-24 01:30 pmWNW 11 12------ 69.6-----
2024-07-24 01:20 pmWNW 9 11------ 69.4-----
2024-07-24 01:10 pm W 9 10------ 69.1-----
2024-07-24 01:00 pmWNW 8 8------ 69.6-----
2024-07-24 12:50 pm NW 8 9------ 69.8-----
2024-07-24 12:40 pm NW 8 10------ 69.8-----
2024-07-24 12:30 pmWNW 9 11------ 69.8-----
2024-07-24 12:20 pmWNW 11 12------ 69.8-----
2024-07-24 12:10 pm NW 11 13------ 69.6-----
2024-07-24 12:00 pm NW 11 13------ 69.8-----
2024-07-24 11:50 am NW 10 12------ 69.6-----
2024-07-24 11:40 am NW 12 13------ 69.4-----
2024-07-24 11:30 am NW 11 13------ 69.4-----
2024-07-24 11:20 am NW 10 12------ 69.4-----
2024-07-24 11:10 am NW 11 13------ 69.8-----
2024-07-24 11:00 am NW 11 12------ 69.6-----
2024-07-24 10:50 amNNW 11 14------ 69.8-----
2024-07-24 10:40 amNNW 11 12------ 70.0-----
2024-07-24 10:30 am N 13 14------ 70.0-----
2024-07-24 10:20 am N 11 13------ 69.3-----
2024-07-24 10:10 amNNW 13 15------ 69.3-----
2024-07-24 10:00 amNNW 15 16------ 69.1-----
2024-07-24 09:50 amNNW 13 15------ 69.3-----
2024-07-24 09:40 amNNW 13 15------ 68.9-----
2024-07-24 09:30 amNNW 14 16------ 68.9-----
2024-07-24 09:20 am NW 15 16------ 68.7-----
2024-07-24 09:10 amNNW 15 16------ 68.5-----
2024-07-24 09:00 amNNW 15 16------ 68.5-----
2024-07-24 08:50 amNNW 15 17------ 68.7-----
2024-07-24 08:40 amNNW 13 15------ 68.7-----
2024-07-24 08:30 amNNW 15 16------ 68.5-----
2024-07-24 08:20 amNNW 14 15------ 68.9-----
2024-07-24 08:10 amNNW 14 16------ 68.7-----
2024-07-24 08:00 am NW 15 17------ 69.1-----
2024-07-24 07:50 am NW 14 15------ 69.1-----
2024-07-24 07:40 amWNW 14 16------ 69.1-----
2024-07-24 07:30 am NW 12 14------ 69.1-----
2024-07-24 07:20 amWNW 12 13------ 69.1-----
2024-07-24 07:10 amWNW 11 12------ 69.1-----
2024-07-24 07:00 amNNW 6 8------ 68.2-----
2024-07-24 06:50 am W 3 4------ 67.5-----
2024-07-24 06:40 amWNW 4 5------ 67.1-----
2024-07-24 06:30 amNNW 5 7------ 66.9-----
2024-07-24 06:20 am N 9 10------ 66.0-----
2024-07-24 06:10 amNNW 10 11------ 66.0-----
2024-07-24 06:00 amNNW 14 16------ 68.9-----
2024-07-24 05:50 amNNW 11 12------ 68.9-----
2024-07-24 05:40 amNNW 10 11------ 68.9-----
2024-07-24 05:30 amNNW 10 11------ 68.9-----
2024-07-24 05:20 amNNW 11 11------ 69.1-----
2024-07-24 05:10 amNNW 10 12------ 69.1-----
2024-07-24 05:00 amNNW 12 14------ 69.1-----
2024-07-24 04:50 amNNW 10 11------ 69.1-----
2024-07-24 04:40 amNNW 11 12------ 69.1-----
2024-07-24 04:30 am NW 12 13------ 69.1-----
2024-07-24 04:20 amNNW 11 13------ 69.1-----
2024-07-24 04:10 amNNW 11 12------ 69.3-----
2024-07-24 04:00 am NW 12 13------ 69.3-----
2024-07-24 03:50 am NW 12 13------ 69.1-----
2024-07-24 03:40 amNNW 12 13------ 69.1-----
2024-07-24 03:30 am NW 13 15------ 69.1-----
2024-07-24 03:20 am NW 13 14------ 69.1-----
2024-07-24 03:10 am NW 13 14------ 69.3-----
2024-07-24 03:00 am NW 15 16------ 69.4-----
2024-07-24 02:50 am NW 13 16------ 69.6-----
2024-07-24 02:40 am NW 12 13------ 69.8-----
2024-07-24 02:30 am NW 12 13------ 69.8-----
2024-07-24 02:20 am NW 13 14------ 70.0-----
2024-07-24 02:10 am NW 12 13------ 70.0-----
2024-07-24 02:00 am NW 10 12------ 70.2-----
2024-07-24 01:50 am NW 11 12------ 70.3-----
2024-07-24 01:40 am NW 11 13------ 70.3-----
2024-07-24 01:30 am NW 12 13------ 70.5-----
2024-07-24 01:20 am NW 12 13------ 70.7-----
2024-07-24 01:10 am NW 12 15------ 70.7-----
2024-07-24 01:00 am NW 11 12------ 70.9-----
2024-07-24 12:50 am NW 13 15------ 70.9-----
2024-07-24 12:40 am NW 12 13------ 71.1-----
2024-07-24 12:30 amWNW 14 15------ 71.4-----
2024-07-24 12:20 amWSW 9 11------ 72.3-----
2024-07-24 12:10 amWSW 10 12------ 72.3-----
2024-07-24 12:00 amWSW 10 11------ 72.3-----
2024-07-23 11:50 pmWSW 11 12------ 72.5-----
2024-07-23 11:40 pmWSW 12 14------ 72.5-----
2024-07-23 11:30 pm SW 13 15------ 72.5-----
2024-07-23 11:20 pm SW 11 12------ 72.7-----
2024-07-23 11:10 pmWSW 12 14------ 72.7-----
2024-07-23 11:00 pmWSW 12 13------ 72.7-----
2024-07-23 10:50 pm SW 15 17------ 72.9-----
2024-07-23 10:40 pmWSW 17 19------ 73.0-----
2024-07-23 10:30 pmWSW 17 19------ 72.9-----
2024-07-23 10:20 pm SW 16 17------ 73.0-----
2024-07-23 10:10 pm SW 14 15------ 73.2-----
2024-07-23 10:00 pm SW 15 16------ 73.6-----
2024-07-23 09:50 pm SW 15 17------ 73.6-----
2024-07-23 09:40 pm SW 18 20------ 74.1-----
2024-07-23 09:30 pm SW 15 17------ 74.3-----
2024-07-23 09:20 pm SW 16 18------ 74.3-----
2024-07-23 09:10 pm SW 15 17------ 74.1-----
2024-07-23 09:00 pm SW 11 12------ 73.8-----
2024-07-23 08:50 pm SW 12 14------ 73.8-----
2024-07-23 08:40 pm SW 12 14------ 73.2-----
2024-07-23 08:30 pm SW 17 19------ 73.6-----
2024-07-23 08:20 pm SW 15 17------ 74.3-----
2024-07-23 08:10 pm SW 17 18------ 75.2-----
2024-07-23 08:00 pm S 12 13------ 76.5-----
2024-07-23 07:40 pmSSE 11 12------ 76.8-----
2024-07-23 07:30 pmSSE 11 11------ 76.8-----
2024-07-23 07:20 pmSSE 10 10------ 76.8-----
2024-07-23 07:10 pm S 10 10------ 77.0-----
2024-07-23 07:00 pm S 10 10------ 77.4-----
2024-07-23 06:50 pmSSE 10 10------ 77.5-----